Time;durP1;ratioP1;P1;durP2;ratioP2;P2;SDS_P1;SDS_P2;PMS_P1;PMS_P2;Temp;Humidity;BMP_temperature;BMP_pressure;BME280_temperature;BME280_humidity;BME280_pressure;Samples;Min_cycle;Max_cycle;Signal;HPM_P1;HPM_P2
2021/08/22 00:02:06;;;;;;;;;;;22.60;55.00;;;;;;5045567;28;82122;-48
2021/08/22 00:04:32;;;;;;;;;;;22.60;55.30;;;;;;5045069;28;82126;-48
2021/08/22 00:06:58;;;;;;;;;;;22.60;55.20;;;;;;5045907;28;84477;-53
2021/08/22 00:09:24;;;;;;;;;;;22.50;55.20;;;;;;5045487;28;83637;-52
2021/08/22 00:11:49;;;;;;;;;;;22.60;55.20;;;;;;5043259;28;82843;-49
2021/08/22 00:14:15;;;;;;;;;;;22.50;55.20;;;;;;5044717;28;82141;-54
2021/08/22 00:16:41;;;;;;;;;;;22.50;55.30;;;;;;5043426;28;82154;-51
2021/08/22 00:19:07;;;;;;;;;;;22.50;55.10;;;;;;5042935;28;83710;-49
2021/08/22 00:21:32;;;;;;;;;;;22.50;55.20;;;;;;5042693;28;83019;-50
2021/08/22 00:23:58;;;;;;;;;;;22.40;55.10;;;;;;5040959;28;82198;-53
2021/08/22 00:26:23;;;;;;;;;;;22.40;55.20;;;;;;5041418;28;82096;-51
2021/08/22 00:28:49;;;;;;;;;;;22.40;55.10;;;;;;5041448;28;82259;-48
2021/08/22 00:31:14;;;;;;;;;;;22.40;55.20;;;;;;5042493;28;82069;-48
2021/08/22 00:33:40;;;;;;;;;;;22.40;55.10;;;;;;5042659;28;84198;-52
2021/08/22 00:36:05;;;;;;;;;;;22.30;55.30;;;;;;5046746;28;83041;-49
2021/08/22 00:38:33;;;;;;;;;;;22.40;55.20;;;;;;5044900;28;83214;-50
2021/08/22 00:40:59;;;;;;;;;;;22.40;55.30;;;;;;5043424;28;84727;-48
2021/08/22 00:43:24;;;;;;;;;;;22.30;55.20;;;;;;5042258;28;83074;-49
2021/08/22 00:45:50;;;;;;;;;;;22.30;55.10;;;;;;5044173;28;83519;-52
2021/08/22 00:48:16;;;;;;;;;;;22.30;55.10;;;;;;5044939;28;82139;-54
2021/08/22 00:50:41;;;;;;;;;;;22.30;55.20;;;;;;5045422;27;83401;-49
2021/08/22 00:53:07;;;;;;;;;;;22.30;55.20;;;;;;5041780;28;83220;-51
2021/08/22 00:55:33;;;;;;;;;;;22.30;55.20;;;;;;5040987;28;84833;-54
2021/08/22 00:57:58;;;;;;;;;;;22.20;55.20;;;;;;5044915;28;82194;-48
2021/08/22 01:00:24;;;;;;;;;;;22.20;55.20;;;;;;5043762;28;81404;-49
2021/08/22 01:03:10;;;;;;;;;;;22.20;55.10;;;;;;5043221;28;82124;-51
2021/08/22 01:05:54;;;;;;;;;;;22.20;55.20;;;;;;5041849;27;82204;-49
2021/08/22 01:08:20;;;;;;;;;;;22.20;55.40;;;;;;5043853;27;84213;-48
2021/08/22 01:10:46;;;;;;;;;;;22.20;55.20;;;;;;5045136;28;82111;-50
2021/08/22 01:13:16;;;;;;;;;;;22.20;55.20;;;;;;5043661;28;83497;-53
2021/08/22 01:15:44;;;;;;;;;;;22.10;55.20;;;;;;5040577;28;84749;-48
2021/08/22 01:18:11;;;;;;;;;;;22.10;55.20;;;;;;5047136;28;83674;-50
2021/08/22 01:20:42;;;;;;;;;;;22.10;55.20;;;;;;5044466;28;82977;-48
2021/08/22 01:23:08;;;;;;;;;;;22.10;55.10;;;;;;5045084;28;82095;-50
2021/08/22 01:25:35;;;;;;;;;;;22.10;55.20;;;;;;5044741;28;82564;-53
2021/08/22 01:28:01;;;;;;;;;;;22.10;55.20;;;;;;5043296;28;83182;-50
2021/08/22 01:30:27;;;;;;;;;;;22.00;55.10;;;;;;5043963;28;82152;-53
2021/08/22 01:32:53;;;;;;;;;;;22.00;55.10;;;;;;5044595;28;83024;-51
2021/08/22 01:35:23;;;;;;;;;;;22.00;55.20;;;;;;5043797;28;83059;-52
2021/08/22 01:37:49;;;;;;;;;;;22.00;55.10;;;;;;5040833;28;82120;-48
2021/08/22 01:40:19;;;;;;;;;;;22.00;55.10;;;;;;5043458;28;84047;-54
2021/08/22 01:42:46;;;;;;;;;;;22.00;55.20;;;;;;5042399;28;82129;-49
2021/08/22 01:45:14;;;;;;;;;;;22.00;55.20;;;;;;5042014;28;82663;-49
2021/08/22 01:47:40;;;;;;;;;;;22.00;55.10;;;;;;5045190;28;83670;-53
2021/08/22 01:50:06;;;;;;;;;;;21.90;55.20;;;;;;5045158;28;82994;-49
2021/08/22 01:52:35;;;;;;;;;;;21.90;55.00;;;;;;5043236;28;82733;-48
2021/08/22 01:55:02;;;;;;;;;;;21.90;55.10;;;;;;5042659;28;83664;-49
2021/08/22 01:57:28;;;;;;;;;;;21.90;55.20;;;;;;5044080;28;83144;-52
2021/08/22 01:59:53;;;;;;;;;;;21.80;55.10;;;;;;5044310;28;83107;-49
2021/08/22 02:02:19;;;;;;;;;;;21.90;55.20;;;;;;5045382;28;82577;-50
2021/08/22 02:04:49;;;;;;;;;;;21.80;55.20;;;;;;5042939;28;82111;-53
2021/08/22 02:07:16;;;;;;;;;;;21.80;55.20;;;;;;5042315;28;84135;-54
2021/08/22 02:09:48;;;;;;;;;;;21.80;55.30;;;;;;5041222;28;82212;-50
2021/08/22 02:12:15;;;;;;;;;;;21.80;55.10;;;;;;5039934;28;83875;-53
2021/08/22 02:14:41;;;;;;;;;;;21.80;55.20;;;;;;5040770;28;83859;-54
2021/08/22 02:17:07;;;;;;;;;;;21.70;55.10;;;;;;5040839;28;83092;-49
2021/08/22 02:19:33;;;;;;;;;;;21.70;55.10;;;;;;5040108;28;82104;-49
2021/08/22 02:21:59;;;;;;;;;;;21.70;55.20;;;;;;5040227;28;84049;-49
2021/08/22 02:24:24;;;;;;;;;;;21.70;55.10;;;;;;5043669;28;82111;-49
2021/08/22 02:26:50;;;;;;;;;;;21.70;55.20;;;;;;5040167;28;83024;-52
2021/08/22 02:29:16;;;;;;;;;;;21.70;55.10;;;;;;5040962;28;82052;-48
2021/08/22 02:31:41;;;;;;;;;;;21.70;55.10;;;;;;5041923;28;82416;-48
2021/08/22 02:34:07;;;;;;;;;;;21.70;55.10;;;;;;5042271;28;84911;-50
2021/08/22 02:36:33;;;;;;;;;;;21.70;55.20;;;;;;5041916;28;82139;-51
2021/08/22 02:38:58;;;;;;;;;;;21.60;55.10;;;;;;5042892;28;81962;-53
2021/08/22 02:41:24;;;;;;;;;;;21.60;55.20;;;;;;5042610;28;82787;-48
2021/08/22 02:43:49;;;;;;;;;;;21.60;55.10;;;;;;5042385;28;82092;-48
2021/08/22 02:46:15;;;;;;;;;;;21.60;55.20;;;;;;5045469;28;83285;-52
2021/08/22 02:48:40;;;;;;;;;;;21.60;55.20;;;;;;5043126;28;82349;-52
2021/08/22 02:51:06;;;;;;;;;;;21.60;55.20;;;;;;5041081;28;83867;-49
2021/08/22 02:53:32;;;;;;;;;;;21.50;55.20;;;;;;5040038;28;83446;-48
2021/08/22 02:55:57;;;;;;;;;;;21.50;55.20;;;;;;5040004;28;82166;-54
2021/08/22 02:58:23;;;;;;;;;;;21.50;55.30;;;;;;5041009;28;83203;-49
2021/08/22 03:00:48;;;;;;;;;;;21.50;55.20;;;;;;5042073;28;82582;-48
2021/08/22 03:03:14;;;;;;;;;;;21.40;55.20;;;;;;5043820;28;81391;-49
2021/08/22 03:05:40;;;;;;;;;;;21.40;55.30;;;;;;5043996;28;82107;-53
2021/08/22 03:08:05;;;;;;;;;;;21.40;55.20;;;;;;5046051;28;83394;-48
2021/08/22 03:10:31;;;;;;;;;;;21.40;55.30;;;;;;5043641;28;83041;-48
2021/08/22 03:12:57;;;;;;;;;;;21.40;55.20;;;;;;5041540;28;83040;-54
2021/08/22 03:15:22;;;;;;;;;;;21.40;55.30;;;;;;5042684;28;82090;-52
2021/08/22 03:17:48;;;;;;;;;;;21.40;55.30;;;;;;5043149;28;82895;-48
2021/08/22 03:20:14;;;;;;;;;;;21.30;55.20;;;;;;5043308;28;82584;-53
2021/08/22 03:22:43;;;;;;;;;;;21.30;55.20;;;;;;5043240;28;82165;-53
2021/08/22 03:25:09;;;;;;;;;;;21.30;55.30;;;;;;5045990;28;82615;-54
2021/08/22 03:27:35;;;;;;;;;;;21.30;55.30;;;;;;5049004;28;82505;-52
2021/08/22 03:30:00;;;;;;;;;;;21.30;55.40;;;;;;5045164;28;82103;-48
2021/08/22 03:32:26;;;;;;;;;;;21.20;55.10;;;;;;5045709;28;83333;-49
2021/08/22 03:34:52;;;;;;;;;;;21.30;55.40;;;;;;5045155;28;83109;-51
2021/08/22 03:37:17;;;;;;;;;;;21.20;55.30;;;;;;5045282;28;83585;-48
2021/08/22 03:39:43;;;;;;;;;;;21.30;55.40;;;;;;5045403;28;83134;-48
2021/08/22 03:42:08;;;;;;;;;;;21.20;55.30;;;;;;5046196;28;82089;-51
2021/08/22 03:44:34;;;;;;;;;;;21.20;55.30;;;;;;5046689;28;83070;-53
2021/08/22 03:46:59;;;;;;;;;;;21.20;55.40;;;;;;5043203;28;83600;-48
2021/08/22 03:49:25;;;;;;;;;;;21.20;55.30;;;;;;5045731;28;82130;-48
2021/08/22 03:51:50;;;;;;;;;;;21.20;55.40;;;;;;5044244;28;82412;-50
2021/08/22 03:54:16;;;;;;;;;;;21.10;55.20;;;;;;5045414;28;82186;-53
2021/08/22 03:56:42;;;;;;;;;;;21.10;55.40;;;;;;5046753;28;82176;-49
2021/08/22 03:59:08;;;;;;;;;;;21.10;55.30;;;;;;5044758;28;85220;-49
2021/08/22 04:01:37;;;;;;;;;;;21.10;56.00;;;;;;5045867;28;82124;-53
2021/08/22 04:04:04;;;;;;;;;;;21.10;55.40;;;;;;5042426;28;83829;-48
2021/08/22 04:06:30;;;;;;;;;;;21.00;55.30;;;;;;5046410;28;84543;-51
2021/08/22 04:08:56;;;;;;;;;;;21.00;55.30;;;;;;5046667;28;82736;-48
2021/08/22 04:11:22;;;;;;;;;;;21.00;55.50;;;;;;5047934;28;83851;-53
2021/08/22 04:13:47;;;;;;;;;;;21.00;55.40;;;;;;5045740;28;82184;-49
2021/08/22 04:16:13;;;;;;;;;;;20.90;55.40;;;;;;5046250;28;82477;-48
2021/08/22 04:18:38;;;;;;;;;;;21.00;55.40;;;;;;5045822;28;83657;-52
2021/08/22 04:21:05;;;;;;;;;;;21.00;55.50;;;;;;5042718;28;83069;-49
2021/08/22 04:23:31;;;;;;;;;;;21.00;55.50;;;;;;5043299;28;84634;-49
2021/08/22 04:25:57;;;;;;;;;;;20.90;55.60;;;;;;5046062;28;82263;-53
2021/08/22 04:28:22;;;;;;;;;;;20.90;55.60;;;;;;5046386;28;83677;-51
2021/08/22 04:30:48;;;;;;;;;;;20.90;55.70;;;;;;5043287;28;83712;-49
2021/08/22 04:33:13;;;;;;;;;;;20.90;55.70;;;;;;5043932;28;83611;-48
2021/08/22 04:35:39;;;;;;;;;;;20.90;55.60;;;;;;5042785;28;82139;-54
2021/08/22 04:38:04;;;;;;;;;;;20.90;55.60;;;;;;5045485;28;83848;-52
2021/08/22 04:40:30;;;;;;;;;;;20.90;55.70;;;;;;5044543;28;81513;-48
2021/08/22 04:42:56;;;;;;;;;;;20.80;55.60;;;;;;5041109;28;82105;-53
2021/08/22 04:45:22;;;;;;;;;;;20.80;55.70;;;;;;5042177;28;84505;-50
2021/08/22 04:47:47;;;;;;;;;;;20.80;55.80;;;;;;5041127;28;83100;-48
2021/08/22 04:50:13;;;;;;;;;;;20.80;55.90;;;;;;5042743;28;85058;-49
2021/08/22 04:52:38;;;;;;;;;;;20.80;55.90;;;;;;5043583;28;82770;-51
2021/08/22 04:55:05;;;;;;;;;;;20.80;56.00;;;;;;5048037;28;82077;-53
2021/08/22 04:57:31;;;;;;;;;;;20.70;55.90;;;;;;5044544;28;84337;-48
2021/08/22 04:59:56;;;;;;;;;;;20.70;56.00;;;;;;5043775;28;82146;-52
2021/08/22 05:02:22;;;;;;;;;;;20.70;55.90;;;;;;5043411;28;82103;-51
2021/08/22 05:04:47;;;;;;;;;;;20.70;56.00;;;;;;5043196;28;82439;-50
2021/08/22 05:07:13;;;;;;;;;;;20.70;56.00;;;;;;5043244;28;82070;-48
2021/08/22 05:09:38;;;;;;;;;;;20.70;56.00;;;;;;5044007;28;82396;-53
2021/08/22 05:12:04;;;;;;;;;;;20.70;56.00;;;;;;5043580;28;83355;-53
2021/08/22 05:14:33;;;;;;;;;;;20.60;56.10;;;;;;5043008;28;82183;-49
2021/08/22 05:16:59;;;;;;;;;;;20.70;56.20;;;;;;5047086;28;82157;-49
2021/08/22 05:19:24;;;;;;;;;;;20.60;56.20;;;;;;5043404;28;82093;-50
2021/08/22 05:21:50;;;;;;;;;;;20.60;56.20;;;;;;5044685;28;82517;-53
2021/08/22 05:24:15;;;;;;;;;;;20.60;56.30;;;;;;5044446;28;84357;-51
2021/08/22 05:26:41;;;;;;;;;;;20.60;56.20;;;;;;5045302;28;82190;-48
2021/08/22 05:29:07;;;;;;;;;;;20.60;56.30;;;;;;5045133;28;83077;-48
2021/08/22 05:31:32;;;;;;;;;;;20.60;56.20;;;;;;5043103;28;83897;-50
2021/08/22 05:33:58;;;;;;;;;;;20.60;56.40;;;;;;5045603;28;83575;-50
2021/08/22 05:36:23;;;;;;;;;;;20.60;56.30;;;;;;5045032;28;83941;-49
2021/08/22 05:38:50;;;;;;;;;;;20.60;56.30;;;;;;5042609;28;83481;-48
2021/08/22 05:41:15;;;;;;;;;;;20.60;56.40;;;;;;5044362;28;82968;-51
2021/08/22 05:43:41;;;;;;;;;;;20.60;56.40;;;;;;5045069;28;82106;-48
2021/08/22 05:46:08;;;;;;;;;;;20.60;56.40;;;;;;5045294;28;82158;-53
2021/08/22 05:48:33;;;;;;;;;;;20.60;56.40;;;;;;5042799;28;83388;-52
2021/08/22 05:50:59;;;;;;;;;;;20.60;56.40;;;;;;5043068;28;84174;-54
2021/08/22 05:53:25;;;;;;;;;;;20.50;56.30;;;;;;5043803;28;81366;-48
2021/08/22 05:55:51;;;;;;;;;;;20.60;56.40;;;;;;5044104;28;82093;-54
2021/08/22 05:58:16;;;;;;;;;;;20.50;56.30;;;;;;5047245;28;82445;-53
2021/08/22 06:00:42;;;;;;;;;;;20.60;56.60;;;;;;5044429;28;83168;-48
2021/08/22 06:03:07;;;;;;;;;;;20.50;56.50;;;;;;5044250;28;82693;-48
2021/08/22 06:05:33;;;;;;;;;;;20.60;56.50;;;;;;5044817;28;82101;-53
2021/08/22 06:07:58;;;;;;;;;;;20.50;56.60;;;;;;5042187;28;82777;-48
2021/08/22 06:10:24;;;;;;;;;;;20.50;56.70;;;;;;5040164;28;83341;-48
2021/08/22 06:12:49;;;;;;;;;;;20.50;56.70;;;;;;5041536;28;82060;-49
2021/08/22 06:15:15;;;;;;;;;;;20.50;56.70;;;;;;5041910;28;84149;-52
2021/08/22 06:17:40;;;;;;;;;;;20.50;56.70;;;;;;5041785;28;82450;-49
2021/08/22 06:20:06;;;;;;;;;;;20.50;56.90;;;;;;5043324;28;82115;-48
2021/08/22 06:22:32;;;;;;;;;;;20.50;56.90;;;;;;5039497;28;84979;-52
2021/08/22 06:24:57;;;;;;;;;;;20.50;56.80;;;;;;5039861;28;83125;-53
2021/08/22 06:27:23;;;;;;;;;;;20.50;56.80;;;;;;5041747;28;83698;-48
2021/08/22 06:29:48;;;;;;;;;;;20.50;56.90;;;;;;5042866;28;82121;-48
2021/08/22 06:32:14;;;;;;;;;;;20.50;57.00;;;;;;5041805;28;82223;-51
2021/08/22 06:34:39;;;;;;;;;;;20.50;57.00;;;;;;5043862;28;83959;-52
2021/08/22 06:37:05;;;;;;;;;;;20.50;57.00;;;;;;5042422;28;82793;-48
2021/08/22 06:39:30;;;;;;;;;;;20.50;57.10;;;;;;5042198;28;83741;-49
2021/08/22 06:41:56;;;;;;;;;;;20.50;57.10;;;;;;5043102;28;83642;-51
2021/08/22 06:44:22;;;;;;;;;;;20.50;57.10;;;;;;5040343;28;82134;-51
2021/08/22 06:46:48;;;;;;;;;;;20.50;57.20;;;;;;5040731;28;83844;-52
2021/08/22 06:49:14;;;;;;;;;;;20.50;57.40;;;;;;5039075;28;84604;-50
2021/08/22 06:51:40;;;;;;;;;;;20.50;57.20;;;;;;5042420;28;83630;-51
2021/08/22 06:54:05;;;;;;;;;;;20.50;57.30;;;;;;5039715;28;83768;-48
2021/08/22 06:56:32;;;;;;;;;;;20.50;57.30;;;;;;5040183;28;83124;-51
2021/08/22 06:58:57;;;;;;;;;;;20.50;57.30;;;;;;5040104;28;82079;-49
2021/08/22 07:01:23;;;;;;;;;;;20.50;57.30;;;;;;5041449;28;82553;-48
2021/08/22 07:03:48;;;;;;;;;;;20.50;57.20;;;;;;5045187;28;82581;-50
2021/08/22 07:06:15;;;;;;;;;;;20.50;57.50;;;;;;5044400;28;83119;-52
2021/08/22 07:08:40;;;;;;;;;;;20.50;57.40;;;;;;5043301;28;84547;-49
2021/08/22 07:11:06;;;;;;;;;;;20.50;57.30;;;;;;5041830;28;83664;-50
2021/08/22 07:13:33;;;;;;;;;;;20.50;57.30;;;;;;5038586;28;83483;-54
2021/08/22 07:15:58;;;;;;;;;;;20.40;57.50;;;;;;5039228;28;84755;-52
2021/08/22 07:18:24;;;;;;;;;;;20.50;57.50;;;;;;5040100;28;82091;-48
2021/08/22 07:20:49;;;;;;;;;;;20.50;57.40;;;;;;5041307;28;82725;-48
2021/08/22 07:23:15;;;;;;;;;;;20.50;57.50;;;;;;5042126;28;84650;-52
2021/08/22 07:25:41;;;;;;;;;;;20.50;57.50;;;;;;5046456;28;82089;-53
2021/08/22 07:28:07;;;;;;;;;;;20.50;57.60;;;;;;5043060;28;84372;-48
2021/08/22 07:30:32;;;;;;;;;;;20.50;57.50;;;;;;5041934;28;81775;-53
2021/08/22 07:33:01;;;;;;;;;;;20.40;57.60;;;;;;5039862;28;82232;-49
2021/08/22 07:35:26;;;;;;;;;;;20.40;57.50;;;;;;5041757;28;84584;-53
2021/08/22 07:37:52;;;;;;;;;;;20.50;57.80;;;;;;5042551;28;83045;-51
2021/08/22 07:40:17;;;;;;;;;;;20.40;57.50;;;;;;5043268;28;82995;-49
2021/08/22 07:42:43;;;;;;;;;;;20.50;57.50;;;;;;5043011;28;83874;-49
2021/08/22 07:45:09;;;;;;;;;;;20.50;57.50;;;;;;5045505;28;83020;-51
2021/08/22 07:47:34;;;;;;;;;;;20.50;57.60;;;;;;5040365;28;83595;-51
2021/08/22 07:50:00;;;;;;;;;;;20.50;57.40;;;;;;5039346;28;82142;-49
2021/08/22 07:52:25;;;;;;;;;;;20.50;57.40;;;;;;5040361;28;82094;-48
2021/08/22 07:54:51;;;;;;;;;;;20.50;57.50;;;;;;5041923;28;83730;-54
2021/08/22 07:57:19;;;;;;;;;;;20.50;57.70;;;;;;5042745;28;82115;-54
2021/08/22 07:59:45;;;;;;;;;;;20.50;57.60;;;;;;5041555;28;83500;-51
2021/08/22 08:02:11;;;;;;;;;;;20.50;57.70;;;;;;5043710;28;84022;-52
2021/08/22 08:04:36;;;;;;;;;;;20.50;57.60;;;;;;5045934;28;82055;-48
2021/08/22 08:07:02;;;;;;;;;;;20.50;57.80;;;;;;5048459;28;83664;-49
2021/08/22 08:09:27;;;;;;;;;;;20.50;57.90;;;;;;5043168;28;83677;-54
2021/08/22 08:11:53;;;;;;;;;;;20.50;57.70;;;;;;5042580;28;82165;-50
2021/08/22 08:14:18;;;;;;;;;;;20.50;57.80;;;;;;5043683;28;82648;-48
2021/08/22 08:16:44;;;;;;;;;;;20.50;57.80;;;;;;5045101;28;82126;-49
2021/08/22 08:19:10;;;;;;;;;;;20.60;57.80;;;;;;5046803;28;82480;-52
2021/08/22 08:21:35;;;;;;;;;;;20.60;57.70;;;;;;5044931;28;83953;-48
2021/08/22 08:24:01;;;;;;;;;;;20.50;57.70;;;;;;5041933;28;83895;-49
2021/08/22 08:26:27;;;;;;;;;;;20.60;57.80;;;;;;5042019;28;83069;-54
2021/08/22 08:28:52;;;;;;;;;;;20.60;57.70;;;;;;5045793;28;84040;-49
2021/08/22 08:31:18;;;;;;;;;;;20.60;57.90;;;;;;5043907;28;82134;-48
2021/08/22 08:33:43;;;;;;;;;;;20.60;57.90;;;;;;5044109;28;82463;-48
2021/08/22 08:36:09;;;;;;;;;;;20.60;57.70;;;;;;5045673;28;82162;-54
2021/08/22 08:38:34;;;;;;;;;;;20.60;57.80;;;;;;5045162;28;82436;-49
2021/08/22 08:41:00;;;;;;;;;;;20.60;57.90;;;;;;5042058;28;84878;-48
2021/08/22 08:43:26;;;;;;;;;;;20.60;57.80;;;;;;5041886;28;81380;-53
2021/08/22 08:45:56;;;;;;;;;;;20.60;57.90;;;;;;5042168;28;82131;-54
2021/08/22 08:48:25;;;;;;;;;;;20.60;58.50;;;;;;5042621;28;84118;-54
2021/08/22 08:51:00;;;;;;;;;;;20.60;57.80;;;;;;5045274;28;83048;-52
2021/08/22 08:53:34;;;;;;;;;;;20.70;57.90;;;;;;5044591;28;83281;-50
2021/08/22 08:56:19;;;;;;;;;;;20.70;57.80;;;;;;5042286;28;82208;-53
2021/08/22 08:58:44;;;;;;;;;;;20.70;57.80;;;;;;5043548;28;82113;-49
2021/08/22 09:01:10;;;;;;;;;;;20.70;57.90;;;;;;5044450;28;83057;-49
2021/08/22 09:03:36;;;;;;;;;;;20.70;57.80;;;;;;5045728;28;82110;-49
2021/08/22 09:06:01;;;;;;;;;;;20.70;57.90;;;;;;5044125;28;83427;-51
2021/08/22 09:08:46;;;;;;;;;;;20.70;57.80;;;;;;5042205;28;82310;-49
2021/08/22 09:11:30;;;;;;;;;;;20.70;57.70;;;;;;5041661;27;82170;-48
2021/08/22 09:14:13;;;;;;;;;;;20.70;57.70;;;;;;5047647;27;82123;-48
2021/08/22 09:16:58;;;;;;;;;;;20.70;57.50;;;;;;5041305;27;83113;-51
2021/08/22 09:19:42;;;;;;;;;;;20.80;57.40;;;;;;5044227;27;83128;-49
2021/08/22 09:22:13;;;;;;;;;;;20.80;57.60;;;;;;5041733;27;84744;-51
2021/08/22 09:24:57;;;;;;;;;;;20.80;57.50;;;;;;5041903;28;82099;-51
2021/08/22 09:27:41;;;;;;;;;;;20.80;57.50;;;;;;5044570;28;82378;-50
2021/08/22 09:30:25;;;;;;;;;;;20.90;57.60;;;;;;5040927;27;82855;-52
2021/08/22 09:33:09;;;;;;;;;;;20.80;58.10;;;;;;5044284;27;82098;-48
2021/08/22 09:35:54;;;;;;;;;;;20.90;57.30;;;;;;5044304;27;83092;-48
2021/08/22 09:38:20;;;;;;;;;;;20.90;57.10;;;;;;5041150;27;82172;-52
2021/08/22 09:41:01;;;;;;;;;;;20.90;57.00;;;;;;5041546;28;83373;-53
2021/08/22 09:43:45;;;;;;;;;;;20.90;57.80;;;;;;5041263;28;85411;-48
2021/08/22 09:46:30;;;;;;;;;;;21.00;57.20;;;;;;5045021;27;82121;-51
2021/08/22 09:49:18;;;;;;;;;;;21.00;57.00;;;;;;5041643;27;82167;-48
2021/08/22 09:51:47;;;;;;;;;;;21.00;57.00;;;;;;5043899;27;84173;-51
2021/08/22 09:54:12;;;;;;;;;;;21.00;57.00;;;;;;5042494;28;82102;-51
2021/08/22 09:57:13;;;;;;;;;;;21.00;57.00;;;;;;5043791;28;82694;-51
2021/08/22 10:00:00;;;;;;;;;;;21.00;57.00;;;;;;5024625;28;83259;-50
2021/08/22 10:02:34;;;;;;;;;;;21.10;57.40;;;;;;5043410;28;84348;-48
2021/08/22 10:05:06;;;;;;;;;;;21.10;57.60;;;;;;5040930;28;82806;-50
2021/08/22 10:07:43;;;;;;;;;;;21.20;57.00;;;;;;5041504;28;82184;-48
2021/08/22 10:10:13;;;;;;;;;;;21.10;56.80;;;;;;5039631;28;83001;-48
2021/08/22 10:12:39;;;;;;;;;;;21.20;56.70;;;;;;5041821;28;84435;-49
2021/08/22 10:15:04;;;;;;;;;;;21.20;56.90;;;;;;5043283;28;82080;-52
2021/08/22 10:17:30;;;;;;;;;;;21.30;56.90;;;;;;5044139;28;83182;-50
2021/08/22 10:19:56;;;;;;;;;;;21.30;56.80;;;;;;5044558;28;83020;-49
2021/08/22 10:22:25;;;;;;;;;;;21.30;56.60;;;;;;5044064;28;83253;-48
2021/08/22 10:24:58;;;;;;;;;;;21.30;56.50;;;;;;5042766;28;82516;-52
2021/08/22 10:27:45;;;;;;;;;;;21.30;56.50;;;;;;5040312;28;81360;-54
2021/08/22 10:30:18;;;;;;;;;;;21.30;56.50;;;;;;5040224;28;83001;-48
2021/08/22 10:32:56;;;;;;;;;;;21.30;56.60;;;;;;5043958;28;84810;-52
2021/08/22 10:35:21;;;;;;;;;;;21.30;56.60;;;;;;5040920;28;83124;-53
2021/08/22 10:37:47;;;;;;;;;;;21.30;56.70;;;;;;5042424;28;83395;-51
2021/08/22 10:40:25;;;;;;;;;;;21.30;56.60;;;;;;5043105;28;83858;-49
2021/08/22 10:43:10;;;;;;;;;;;21.30;56.60;;;;;;5041332;28;82105;-52
2021/08/22 10:45:49;;;;;;;;;;;21.30;56.60;;;;;;5044822;27;83158;-49
2021/08/22 10:48:23;;;;;;;;;;;21.40;56.60;;;;;;5039772;28;82190;-51
2021/08/22 10:51:04;;;;;;;;;;;21.80;52.60;;;;;;5023671;28;82121;-55
2021/08/22 10:53:47;;;;;;;;;;;22.40;49.60;;;;;;5020070;28;83826;-54
2021/08/22 10:56:22;;;;;;;;;;;22.70;50.40;;;;;;5022485;28;82194;-62
2021/08/22 10:59:03;;;;;;;;;;;22.60;50.30;;;;;;5023688;28;82680;-53
2021/08/22 11:01:30;;;;;;;;;;;23.00;49.10;;;;;;5022841;28;83665;-60
2021/08/22 11:04:03;;;;;;;;;;;23.30;48.30;;;;;;5022884;28;82180;-49
2021/08/22 11:06:28;;;;;;;;;;;23.50;47.70;;;;;;5020386;28;82170;-52
2021/08/22 11:08:54;;;;;;;;;;;23.60;45.90;;;;;;5023836;28;83865;-56
2021/08/22 11:11:19;;;;;;;;;;;23.70;45.70;;;;;;5022687;28;82121;-53
2021/08/22 11:13:52;;;;;;;;;;;23.60;45.20;;;;;;5023486;28;84392;-59
2021/08/22 11:16:18;;;;;;;;;;;23.60;46.80;;;;;;5022275;28;82175;-56
2021/08/22 11:18:46;;;;;;;;;;;23.60;45.90;;;;;;5023864;28;83782;-53
2021/08/22 11:21:12;;;;;;;;;;;23.70;47.30;;;;;;5020070;28;84117;-47
2021/08/22 11:23:38;;;;;;;;;;;23.70;46.50;;;;;;5021202;28;82118;-53
2021/08/22 11:26:10;;;;;;;;;;;23.70;44.90;;;;;;5020089;28;83085;-61
2021/08/22 11:28:36;;;;;;;;;;;23.80;44.30;;;;;;5018736;28;82219;-55
2021/08/22 11:31:12;;;;;;;;;;;23.80;44.10;;;;;;5021169;28;83722;-48
2021/08/22 11:33:37;;;;;;;;;;;23.90;44.50;;;;;;5020813;28;83667;-52
2021/08/22 11:36:03;;;;;;;;;;;23.90;44.60;;;;;;5025373;28;83671;-50
2021/08/22 11:38:29;;;;;;;;;;;23.80;45.00;;;;;;5023072;28;83658;-50
2021/08/22 11:40:59;;;;;;;;;;;23.90;45.10;;;;;;5022606;28;83159;-54
2021/08/22 11:43:26;;;;;;;;;;;23.90;43.10;;;;;;5024251;28;81341;-52
2021/08/22 11:45:51;;;;;;;;;;;23.90;44.50;;;;;;5023708;28;82114;-55
2021/08/22 11:48:18;;;;;;;;;;;23.90;43.70;;;;;;5024752;28;82127;-55
2021/08/22 11:50:45;;;;;;;;;;;24.00;43.70;;;;;;5026208;28;83078;-52
2021/08/22 11:53:11;;;;;;;;;;;24.10;43.30;;;;;;5022599;28;83524;-50
2021/08/22 11:55:37;;;;;;;;;;;24.20;43.90;;;;;;5022450;28;82173;-51
2021/08/22 11:58:21;;;;;;;;;;;24.10;43.60;;;;;;5021997;28;83933;-50
2021/08/22 12:00:50;;;;;;;;;;;24.20;44.20;;;;;;5023706;28;84653;-49
2021/08/22 12:03:18;;;;;;;;;;;24.20;43.00;;;;;;5025452;28;82100;-56
2021/08/22 12:05:59;;;;;;;;;;;24.30;43.20;;;;;;5023415;28;82192;-51
2021/08/22 12:08:26;;;;;;;;;;;24.60;42.30;;;;;;5023171;28;81827;-53
2021/08/22 12:11:04;;;;;;;;;;;24.60;43.30;;;;;;5022536;28;82161;-52
2021/08/22 12:13:30;;;;;;;;;;;24.60;41.70;;;;;;5028312;28;83996;-53
2021/08/22 12:15:55;;;;;;;;;;;24.80;41.10;;;;;;5023917;28;83930;-48
2021/08/22 12:18:22;;;;;;;;;;;24.80;42.70;;;;;;5021923;28;83105;-49
2021/08/22 12:20:50;;;;;;;;;;;24.70;41.40;;;;;;5022836;28;84792;-54
2021/08/22 12:23:16;;;;;;;;;;;24.90;40.10;;;;;;5026340;28;83617;-53
2021/08/22 12:25:42;;;;;;;;;;;25.00;39.60;;;;;;5025311;28;82961;-54
2021/08/22 12:28:20;;;;;;;;;;;25.10;40.20;;;;;;5025790;28;83169;-56
2021/08/22 12:30:49;;;;;;;;;;;25.00;40.20;;;;;;5023421;28;82123;-52
2021/08/22 12:33:30;;;;;;;;;;;25.00;39.80;;;;;;5023791;28;83912;-59
2021/08/22 12:36:03;;;;;;;;;;;24.90;41.90;;;;;;5025873;28;84353;-57
2021/08/22 12:38:35;;;;;;;;;;;24.70;43.30;;;;;;5025463;28;83914;-56
2021/08/22 12:41:19;;;;;;;;;;;24.80;47.30;;;;;;5024683;28;85591;-54
2021/08/22 12:43:44;;;;;;;;;;;24.90;46.20;;;;;;5022422;28;82223;-55
2021/08/22 12:46:10;;;;;;;;;;;25.00;45.50;;;;;;5022104;28;82129;-55
2021/08/22 12:48:35;;;;;;;;;;;25.00;44.80;;;;;;5023471;28;83085;-54
2021/08/22 12:51:06;;;;;;;;;;;25.00;45.50;;;;;;5024507;28;82111;-53
2021/08/22 12:53:32;;;;;;;;;;;25.00;46.00;;;;;;5025058;28;83040;-52
2021/08/22 12:55:57;;;;;;;;;;;25.10;46.10;;;;;;5024528;28;83842;-53
2021/08/22 12:58:23;;;;;;;;;;;25.10;45.70;;;;;;5024618;28;82231;-56
2021/08/22 13:00:48;;;;;;;;;;;25.10;47.00;;;;;;5021763;28;82150;-51
2021/08/22 13:03:14;;;;;;;;;;;25.10;47.10;;;;;;5022684;28;82136;-54
2021/08/22 13:05:39;;;;;;;;;;;25.10;46.70;;;;;;5021607;28;83087;-55
2021/08/22 13:08:05;;;;;;;;;;;25.10;46.20;;;;;;5022773;28;82126;-55
2021/08/22 13:10:31;;;;;;;;;;;25.10;46.40;;;;;;5023938;28;82138;-50
2021/08/22 13:12:56;;;;;;;;;;;25.10;46.60;;;;;;5025201;28;82728;-54
2021/08/22 13:15:22;;;;;;;;;;;25.10;46.60;;;;;;5025599;28;83185;-52
2021/08/22 13:17:47;;;;;;;;;;;25.10;46.10;;;;;;5024289;28;82138;-53
2021/08/22 13:20:13;;;;;;;;;;;25.10;46.80;;;;;;5028175;28;82182;-51
2021/08/22 13:22:39;;;;;;;;;;;25.10;47.50;;;;;;5025195;28;81398;-51
2021/08/22 13:25:04;;;;;;;;;;;25.00;46.40;;;;;;5025419;28;82251;-52
2021/08/22 13:27:30;;;;;;;;;;;25.10;46.90;;;;;;5022656;28;83180;-52
2021/08/22 13:29:55;;;;;;;;;;;25.10;46.10;;;;;;5020152;28;83099;-50
2021/08/22 13:32:21;;;;;;;;;;;25.10;47.10;;;;;;5021182;28;83045;-51
2021/08/22 13:34:46;;;;;;;;;;;25.00;46.90;;;;;;5020493;28;82553;-49
2021/08/22 13:37:12;;;;;;;;;;;25.10;46.40;;;;;;5021093;28;82154;-51
2021/08/22 13:39:37;;;;;;;;;;;25.10;46.90;;;;;;5020385;28;82723;-51
2021/08/22 13:42:03;;;;;;;;;;;25.10;46.60;;;;;;5022871;28;84390;-51
2021/08/22 13:44:28;;;;;;;;;;;25.00;47.00;;;;;;5021320;28;82478;-51
2021/08/22 13:46:54;;;;;;;;;;;25.10;46.70;;;;;;5022859;28;82445;-53
2021/08/22 13:49:19;;;;;;;;;;;25.10;46.60;;;;;;5023694;28;82181;-50
2021/08/22 13:51:45;;;;;;;;;;;25.10;46.30;;;;;;5024521;28;83161;-51
2021/08/22 13:54:12;;;;;;;;;;;25.20;46.20;;;;;;5020557;28;85229;-50
2021/08/22 13:56:38;;;;;;;;;;;25.20;46.80;;;;;;5022844;28;82211;-50
2021/08/22 13:59:03;;;;;;;;;;;25.30;46.40;;;;;;5024396;28;84235;-50
2021/08/22 14:01:29;;;;;;;;;;;25.20;46.50;;;;;;5024630;28;85210;-52
2021/08/22 14:03:55;;;;;;;;;;;25.20;46.30;;;;;;5023743;28;83744;-54
2021/08/22 14:06:21;;;;;;;;;;;25.20;46.00;;;;;;5023521;28;83729;-50
2021/08/22 14:08:46;;;;;;;;;;;25.30;45.60;;;;;;5020978;28;82070;-50
2021/08/22 14:11:12;;;;;;;;;;;25.30;45.70;;;;;;5021271;28;82569;-50
2021/08/22 14:13:37;;;;;;;;;;;25.30;45.70;;;;;;5021689;28;82127;-50
2021/08/22 14:16:03;;;;;;;;;;;25.30;46.10;;;;;;5023070;28;82084;-51
2021/08/22 14:18:28;;;;;;;;;;;25.40;45.70;;;;;;5022104;28;83043;-50
2021/08/22 14:20:54;;;;;;;;;;;25.40;45.50;;;;;;5021511;28;84680;-50